sensor_id;sensor_type;location;lat;lon;timestamp;P1;durP1;ratioP1;P2;durP2;ratioP2
31724;SDS011;18306;40.960;14.836;2024-02-15T00:01:20;12.30;;;7.50;;
31724;SDS011;18306;40.960;14.836;2024-02-15T00:03:47;12.90;;;7.85;;
31724;SDS011;18306;40.960;14.836;2024-02-15T00:06:15;10.50;;;7.17;;
31724;SDS011;18306;40.960;14.836;2024-02-15T00:08:42;13.55;;;8.43;;
31724;SDS011;18306;40.960;14.836;2024-02-15T00:11:10;13.40;;;9.18;;
31724;SDS011;18306;40.960;14.836;2024-02-15T00:13:40;14.35;;;9.02;;
31724;SDS011;18306;40.960;14.836;2024-02-15T00:16:07;15.05;;;9.13;;
31724;SDS011;18306;40.960;14.836;2024-02-15T00:18:34;14.03;;;8.07;;
31724;SDS011;18306;40.960;14.836;2024-02-15T00:21:06;14.63;;;8.90;;
31724;SDS011;18306;40.960;14.836;2024-02-15T00:23:33;14.45;;;8.80;;
31724;SDS011;18306;40.960;14.836;2024-02-15T00:26:00;11.95;;;7.75;;
31724;SDS011;18306;40.960;14.836;2024-02-15T00:28:27;11.70;;;7.10;;
31724;SDS011;18306;40.960;14.836;2024-02-15T00:30:54;10.00;;;6.78;;
31724;SDS011;18306;40.960;14.836;2024-02-15T00:33:21;11.13;;;7.43;;
31724;SDS011;18306;40.960;14.836;2024-02-15T00:35:49;11.13;;;7.93;;
31724;SDS011;18306;40.960;14.836;2024-02-15T00:38:18;12.93;;;7.82;;
31724;SDS011;18306;40.960;14.836;2024-02-15T00:40:45;11.85;;;7.68;;
31724;SDS011;18306;40.960;14.836;2024-02-15T00:43:12;13.60;;;8.13;;
31724;SDS011;18306;40.960;14.836;2024-02-15T00:45:39;12.20;;;6.60;;
31724;SDS011;18306;40.960;14.836;2024-02-15T00:48:07;14.75;;;7.40;;
31724;SDS011;18306;40.960;14.836;2024-02-15T00:50:34;8.55;;;6.22;;
31724;SDS011;18306;40.960;14.836;2024-02-15T00:53:01;10.55;;;6.32;;
31724;SDS011;18306;40.960;14.836;2024-02-15T00:55:31;12.50;;;8.00;;
31724;SDS011;18306;40.960;14.836;2024-02-15T00:57:58;12.40;;;8.70;;
31724;SDS011;18306;40.960;14.836;2024-02-15T01:00:25;11.63;;;7.70;;
31724;SDS011;18306;40.960;14.836;2024-02-15T01:02:52;13.55;;;8.80;;
31724;SDS011;18306;40.960;14.836;2024-02-15T01:05:20;10.05;;;7.07;;
31724;SDS011;18306;40.960;14.836;2024-02-15T01:07:48;8.45;;;6.75;;
31724;SDS011;18306;40.960;14.836;2024-02-15T01:10:15;13.55;;;8.95;;
31724;SDS011;18306;40.960;14.836;2024-02-15T01:12:43;12.60;;;7.80;;
31724;SDS011;18306;40.960;14.836;2024-02-15T01:15:13;11.70;;;7.70;;
31724;SDS011;18306;40.960;14.836;2024-02-15T01:17:42;11.70;;;8.00;;
31724;SDS011;18306;40.960;14.836;2024-02-15T01:20:09;8.20;;;5.87;;
31724;SDS011;18306;40.960;14.836;2024-02-15T01:22:37;8.20;;;6.25;;
31724;SDS011;18306;40.960;14.836;2024-02-15T01:25:04;9.32;;;6.10;;
31724;SDS011;18306;40.960;14.836;2024-02-15T01:27:33;9.02;;;6.53;;
31724;SDS011;18306;40.960;14.836;2024-02-15T01:30:00;9.38;;;6.55;;
31724;SDS011;18306;40.960;14.836;2024-02-15T01:32:27;10.02;;;6.60;;
31724;SDS011;18306;40.960;14.836;2024-02-15T01:34:54;9.88;;;6.78;;
31724;SDS011;18306;40.960;14.836;2024-02-15T01:37:21;9.05;;;5.40;;
31724;SDS011;18306;40.960;14.836;2024-02-15T01:39:48;8.80;;;5.63;;
31724;SDS011;18306;40.960;14.836;2024-02-15T01:42:16;8.57;;;6.15;;
31724;SDS011;18306;40.960;14.836;2024-02-15T01:44:43;10.55;;;6.70;;
31724;SDS011;18306;40.960;14.836;2024-02-15T01:47:10;10.80;;;6.45;;
31724;SDS011;18306;40.960;14.836;2024-02-15T01:49:38;8.43;;;5.70;;
31724;SDS011;18306;40.960;14.836;2024-02-15T01:52:08;8.10;;;4.85;;
31724;SDS011;18306;40.960;14.836;2024-02-15T01:54:37;9.23;;;5.60;;
31724;SDS011;18306;40.960;14.836;2024-02-15T01:57:05;8.53;;;6.17;;
31724;SDS011;18306;40.960;14.836;2024-02-15T01:59:32;6.50;;;4.80;;
31724;SDS011;18306;40.960;14.836;2024-02-15T02:02:00;9.05;;;6.13;;
31724;SDS011;18306;40.960;14.836;2024-02-15T02:04:28;8.97;;;6.10;;
31724;SDS011;18306;40.960;14.836;2024-02-15T02:06:58;11.48;;;6.72;;
31724;SDS011;18306;40.960;14.836;2024-02-15T02:09:25;8.68;;;5.88;;
31724;SDS011;18306;40.960;14.836;2024-02-15T02:11:52;13.55;;;7.97;;
31724;SDS011;18306;40.960;14.836;2024-02-15T02:14:20;10.73;;;6.78;;
31724;SDS011;18306;40.960;14.836;2024-02-15T02:16:48;8.70;;;6.27;;
31724;SDS011;18306;40.960;14.836;2024-02-15T02:19:16;10.85;;;6.97;;
31724;SDS011;18306;40.960;14.836;2024-02-15T02:21:43;10.82;;;6.38;;
31724;SDS011;18306;40.960;14.836;2024-02-15T02:24:14;9.95;;;6.82;;
31724;SDS011;18306;40.960;14.836;2024-02-15T02:26:48;9.52;;;6.43;;
31724;SDS011;18306;40.960;14.836;2024-02-15T02:29:20;8.70;;;5.22;;
31724;SDS011;18306;40.960;14.836;2024-02-15T02:31:47;7.97;;;5.40;;
31724;SDS011;18306;40.960;14.836;2024-02-15T02:34:15;9.10;;;5.40;;
31724;SDS011;18306;40.960;14.836;2024-02-15T02:36:45;8.88;;;5.80;;
31724;SDS011;18306;40.960;14.836;2024-02-15T02:39:14;6.03;;;3.95;;
31724;SDS011;18306;40.960;14.836;2024-02-15T02:41:41;8.52;;;4.60;;
31724;SDS011;18306;40.960;14.836;2024-02-15T02:44:08;6.80;;;4.43;;
31724;SDS011;18306;40.960;14.836;2024-02-15T02:46:35;8.70;;;5.40;;
31724;SDS011;18306;40.960;14.836;2024-02-15T02:49:03;6.32;;;4.53;;
31724;SDS011;18306;40.960;14.836;2024-02-15T02:51:30;9.60;;;5.32;;
31724;SDS011;18306;40.960;14.836;2024-02-15T02:53:57;9.63;;;5.77;;
31724;SDS011;18306;40.960;14.836;2024-02-15T02:56:24;10.00;;;5.80;;
31724;SDS011;18306;40.960;14.836;2024-02-15T02:58:54;10.47;;;5.87;;
31724;SDS011;18306;40.960;14.836;2024-02-15T03:01:22;9.45;;;5.95;;
31724;SDS011;18306;40.960;14.836;2024-02-15T03:03:53;10.00;;;6.20;;
31724;SDS011;18306;40.960;14.836;2024-02-15T03:06:24;12.97;;;5.37;;
31724;SDS011;18306;40.960;14.836;2024-02-15T03:08:51;8.02;;;4.70;;
31724;SDS011;18306;40.960;14.836;2024-02-15T03:11:20;9.95;;;5.50;;
31724;SDS011;18306;40.960;14.836;2024-02-15T03:13:47;9.30;;;4.97;;
31724;SDS011;18306;40.960;14.836;2024-02-15T03:16:15;7.00;;;4.38;;
31724;SDS011;18306;40.960;14.836;2024-02-15T03:18:42;7.03;;;4.50;;
31724;SDS011;18306;40.960;14.836;2024-02-15T03:21:09;8.75;;;4.47;;
31724;SDS011;18306;40.960;14.836;2024-02-15T03:23:37;7.72;;;4.85;;
31724;SDS011;18306;40.960;14.836;2024-02-15T03:26:07;8.63;;;4.97;;
31724;SDS011;18306;40.960;14.836;2024-02-15T03:28:35;8.00;;;5.15;;
31724;SDS011;18306;40.960;14.836;2024-02-15T03:31:04;8.00;;;5.78;;
31724;SDS011;18306;40.960;14.836;2024-02-15T03:33:31;12.70;;;7.50;;
31724;SDS011;18306;40.960;14.836;2024-02-15T03:36:01;14.02;;;8.15;;
31724;SDS011;18306;40.960;14.836;2024-02-15T03:38:28;13.18;;;7.25;;
31724;SDS011;18306;40.960;14.836;2024-02-15T03:40:55;13.68;;;7.57;;
31724;SDS011;18306;40.960;14.836;2024-02-15T03:43:23;10.68;;;6.13;;
31724;SDS011;18306;40.960;14.836;2024-02-15T03:45:51;10.35;;;5.70;;
31724;SDS011;18306;40.960;14.836;2024-02-15T03:48:19;9.75;;;6.03;;
31724;SDS011;18306;40.960;14.836;2024-02-15T03:50:46;9.80;;;5.70;;
31724;SDS011;18306;40.960;14.836;2024-02-15T03:53:14;9.32;;;5.72;;
31724;SDS011;18306;40.960;14.836;2024-02-15T03:55:41;11.35;;;6.32;;
31724;SDS011;18306;40.960;14.836;2024-02-15T03:58:09;6.57;;;4.90;;
31724;SDS011;18306;40.960;14.836;2024-02-15T04:00:36;7.57;;;4.20;;
31724;SDS011;18306;40.960;14.836;2024-02-15T04:03:08;7.13;;;4.65;;
31724;SDS011;18306;40.960;14.836;2024-02-15T04:05:35;8.13;;;5.00;;
31724;SDS011;18306;40.960;14.836;2024-02-15T04:08:02;8.33;;;5.30;;
31724;SDS011;18306;40.960;14.836;2024-02-15T04:10:31;15.20;;;5.60;;
31724;SDS011;18306;40.960;14.836;2024-02-15T04:13:02;11.10;;;5.40;;
31724;SDS011;18306;40.960;14.836;2024-02-15T04:15:30;8.63;;;5.30;;
31724;SDS011;18306;40.960;14.836;2024-02-15T04:17:57;9.48;;;5.82;;
31724;SDS011;18306;40.960;14.836;2024-02-15T04:20:25;9.60;;;5.35;;
31724;SDS011;18306;40.960;14.836;2024-02-15T04:22:53;9.88;;;5.60;;
31724;SDS011;18306;40.960;14.836;2024-02-15T04:25:23;9.93;;;5.85;;
31724;SDS011;18306;40.960;14.836;2024-02-15T04:27:54;8.50;;;5.77;;
31724;SDS011;18306;40.960;14.836;2024-02-15T04:30:24;13.30;;;7.95;;
31724;SDS011;18306;40.960;14.836;2024-02-15T04:32:51;11.20;;;7.47;;
31724;SDS011;18306;40.960;14.836;2024-02-15T04:35:19;11.23;;;7.15;;
31724;SDS011;18306;40.960;14.836;2024-02-15T04:37:46;9.85;;;5.75;;
31724;SDS011;18306;40.960;14.836;2024-02-15T04:40:13;9.50;;;5.60;;
31724;SDS011;18306;40.960;14.836;2024-02-15T04:42:41;9.98;;;5.40;;
31724;SDS011;18306;40.960;14.836;2024-02-15T04:45:10;7.47;;;5.18;;
31724;SDS011;18306;40.960;14.836;2024-02-15T04:47:53;10.43;;;5.07;;
31724;SDS011;18306;40.960;14.836;2024-02-15T04:50:23;9.63;;;5.30;;
31724;SDS011;18306;40.960;14.836;2024-02-15T04:52:52;10.10;;;6.93;;
31724;SDS011;18306;40.960;14.836;2024-02-15T04:55:19;13.52;;;8.18;;
31724;SDS011;18306;40.960;14.836;2024-02-15T04:57:49;10.55;;;6.63;;
31724;SDS011;18306;40.960;14.836;2024-02-15T05:00:21;10.35;;;5.85;;
31724;SDS011;18306;40.960;14.836;2024-02-15T05:02:51;10.93;;;7.45;;
31724;SDS011;18306;40.960;14.836;2024-02-15T05:05:20;10.75;;;6.45;;
31724;SDS011;18306;40.960;14.836;2024-02-15T05:07:47;9.52;;;6.15;;
31724;SDS011;18306;40.960;14.836;2024-02-15T05:10:18;9.82;;;6.40;;
31724;SDS011;18306;40.960;14.836;2024-02-15T05:12:45;10.50;;;6.55;;
31724;SDS011;18306;40.960;14.836;2024-02-15T05:15:15;8.90;;;6.00;;
31724;SDS011;18306;40.960;14.836;2024-02-15T05:17:43;12.85;;;7.38;;
31724;SDS011;18306;40.960;14.836;2024-02-15T05:20:11;10.88;;;6.22;;
31724;SDS011;18306;40.960;14.836;2024-02-15T05:22:42;10.48;;;6.55;;
31724;SDS011;18306;40.960;14.836;2024-02-15T05:25:12;9.63;;;6.20;;
31724;SDS011;18306;40.960;14.836;2024-02-15T05:27:39;10.95;;;6.85;;
31724;SDS011;18306;40.960;14.836;2024-02-15T05:30:08;12.00;;;6.63;;
31724;SDS011;18306;40.960;14.836;2024-02-15T05:32:37;10.13;;;5.88;;
31724;SDS011;18306;40.960;14.836;2024-02-15T05:35:09;10.10;;;6.55;;
31724;SDS011;18306;40.960;14.836;2024-02-15T05:37:39;11.35;;;7.00;;
31724;SDS011;18306;40.960;14.836;2024-02-15T05:40:06;10.73;;;6.70;;
31724;SDS011;18306;40.960;14.836;2024-02-15T05:42:44;9.37;;;6.07;;
31724;SDS011;18306;40.960;14.836;2024-02-15T05:45:27;10.52;;;6.78;;
31724;SDS011;18306;40.960;14.836;2024-02-15T05:48:04;11.07;;;6.00;;
31724;SDS011;18306;40.960;14.836;2024-02-15T05:50:35;9.88;;;5.85;;
31724;SDS011;18306;40.960;14.836;2024-02-15T05:53:02;9.60;;;5.50;;
31724;SDS011;18306;40.960;14.836;2024-02-15T05:55:30;9.52;;;5.60;;
31724;SDS011;18306;40.960;14.836;2024-02-15T05:58:03;8.68;;;5.63;;
31724;SDS011;18306;40.960;14.836;2024-02-15T06:00:30;18.35;;;13.32;;
31724;SDS011;18306;40.960;14.836;2024-02-15T06:02:57;15.98;;;11.63;;
31724;SDS011;18306;40.960;14.836;2024-02-15T06:05:24;9.63;;;6.82;;
31724;SDS011;18306;40.960;14.836;2024-02-15T06:07:52;9.33;;;5.90;;
31724;SDS011;18306;40.960;14.836;2024-02-15T06:10:19;8.85;;;5.57;;
31724;SDS011;18306;40.960;14.836;2024-02-15T06:12:46;16.27;;;11.13;;
31724;SDS011;18306;40.960;14.836;2024-02-15T06:15:14;11.93;;;7.50;;
31724;SDS011;18306;40.960;14.836;2024-02-15T06:17:41;13.70;;;8.07;;
31724;SDS011;18306;40.960;14.836;2024-02-15T06:20:12;14.73;;;8.13;;
31724;SDS011;18306;40.960;14.836;2024-02-15T06:22:47;12.50;;;7.72;;
31724;SDS011;18306;40.960;14.836;2024-02-15T06:25:14;10.25;;;7.22;;
31724;SDS011;18306;40.960;14.836;2024-02-15T06:27:47;10.70;;;7.57;;
31724;SDS011;18306;40.960;14.836;2024-02-15T06:30:17;11.13;;;7.22;;
31724;SDS011;18306;40.960;14.836;2024-02-15T06:33:04;10.45;;;6.50;;
31724;SDS011;18306;40.960;14.836;2024-02-15T06:35:50;10.43;;;6.85;;
31724;SDS011;18306;40.960;14.836;2024-02-15T06:38:35;10.23;;;6.53;;
31724;SDS011;18306;40.960;14.836;2024-02-15T06:41:21;10.13;;;5.80;;
31724;SDS011;18306;40.960;14.836;2024-02-15T06:43:48;10.93;;;6.15;;
31724;SDS011;18306;40.960;14.836;2024-02-15T06:46:15;9.55;;;6.07;;
31724;SDS011;18306;40.960;14.836;2024-02-15T06:48:45;10.68;;;6.53;;
31724;SDS011;18306;40.960;14.836;2024-02-15T06:51:13;11.38;;;7.10;;
31724;SDS011;18306;40.960;14.836;2024-02-15T06:53:42;11.07;;;6.75;;
31724;SDS011;18306;40.960;14.836;2024-02-15T06:56:12;13.32;;;6.90;;
31724;SDS011;18306;40.960;14.836;2024-02-15T06:58:40;14.70;;;8.15;;
31724;SDS011;18306;40.960;14.836;2024-02-15T07:01:07;13.63;;;6.90;;
31724;SDS011;18306;40.960;14.836;2024-02-15T07:03:34;17.57;;;9.90;;
31724;SDS011;18306;40.960;14.836;2024-02-15T07:06:02;20.00;;;12.77;;
31724;SDS011;18306;40.960;14.836;2024-02-15T07:08:29;18.90;;;11.82;;
31724;SDS011;18306;40.960;14.836;2024-02-15T07:10:58;26.20;;;13.48;;
31724;SDS011;18306;40.960;14.836;2024-02-15T07:13:26;18.83;;;12.27;;
31724;SDS011;18306;40.960;14.836;2024-02-15T07:15:53;18.88;;;10.93;;
31724;SDS011;18306;40.960;14.836;2024-02-15T07:18:24;14.50;;;9.50;;
31724;SDS011;18306;40.960;14.836;2024-02-15T07:20:51;30.13;;;18.35;;
31724;SDS011;18306;40.960;14.836;2024-02-15T07:23:20;17.98;;;10.90;;
31724;SDS011;18306;40.960;14.836;2024-02-15T07:25:47;14.95;;;9.43;;
31724;SDS011;18306;40.960;14.836;2024-02-15T07:28:20;14.40;;;8.85;;
31724;SDS011;18306;40.960;14.836;2024-02-15T07:30:47;14.23;;;8.05;;
31724;SDS011;18306;40.960;14.836;2024-02-15T07:33:17;13.23;;;7.47;;
31724;SDS011;18306;40.960;14.836;2024-02-15T07:35:46;12.93;;;7.13;;
31724;SDS011;18306;40.960;14.836;2024-02-15T07:38:21;12.98;;;6.90;;
31724;SDS011;18306;40.960;14.836;2024-02-15T07:40:49;13.25;;;7.07;;
31724;SDS011;18306;40.960;14.836;2024-02-15T07:43:16;9.75;;;5.47;;
31724;SDS011;18306;40.960;14.836;2024-02-15T07:45:43;9.90;;;5.70;;
31724;SDS011;18306;40.960;14.836;2024-02-15T07:48:16;11.18;;;7.47;;
31724;SDS011;18306;40.960;14.836;2024-02-15T07:50:46;14.07;;;8.82;;
31724;SDS011;18306;40.960;14.836;2024-02-15T07:53:15;15.50;;;9.07;;
31724;SDS011;18306;40.960;14.836;2024-02-15T07:55:43;11.55;;;8.38;;
31724;SDS011;18306;40.960;14.836;2024-02-15T07:58:10;15.55;;;11.73;;
31724;SDS011;18306;40.960;14.836;2024-02-15T08:00:39;15.00;;;12.35;;
31724;SDS011;18306;40.960;14.836;2024-02-15T08:03:07;17.10;;;11.47;;
31724;SDS011;18306;40.960;14.836;2024-02-15T08:05:33;16.58;;;9.90;;
31724;SDS011;18306;40.960;14.836;2024-02-15T08:08:06;16.63;;;10.57;;
31724;SDS011;18306;40.960;14.836;2024-02-15T08:10:35;13.57;;;10.00;;
31724;SDS011;18306;40.960;14.836;2024-02-15T08:13:04;14.33;;;10.07;;
31724;SDS011;18306;40.960;14.836;2024-02-15T08:15:32;16.58;;;11.55;;
31724;SDS011;18306;40.960;14.836;2024-02-15T08:18:08;16.63;;;11.52;;
31724;SDS011;18306;40.960;14.836;2024-02-15T08:20:42;15.25;;;11.05;;
31724;SDS011;18306;40.960;14.836;2024-02-15T08:23:16;12.90;;;9.82;;
31724;SDS011;18306;40.960;14.836;2024-02-15T08:25:44;14.45;;;10.23;;
31724;SDS011;18306;40.960;14.836;2024-02-15T08:28:15;14.97;;;10.97;;
31724;SDS011;18306;40.960;14.836;2024-02-15T08:30:42;14.15;;;10.07;;
31724;SDS011;18306;40.960;14.836;2024-02-15T08:33:11;16.92;;;11.55;;
31724;SDS011;18306;40.960;14.836;2024-02-15T08:35:39;15.70;;;10.52;;
31724;SDS011;18306;40.960;14.836;2024-02-15T08:38:07;14.57;;;10.53;;
31724;SDS011;18306;40.960;14.836;2024-02-15T08:40:34;17.48;;;11.02;;
31724;SDS011;18306;40.960;14.836;2024-02-15T08:43:02;17.75;;;10.90;;
31724;SDS011;18306;40.960;14.836;2024-02-15T08:45:29;16.65;;;10.50;;
31724;SDS011;18306;40.960;14.836;2024-02-15T08:47:56;14.45;;;10.20;;
31724;SDS011;18306;40.960;14.836;2024-02-15T08:50:23;18.48;;;11.90;;
31724;SDS011;18306;40.960;14.836;2024-02-15T08:52:51;17.40;;;11.02;;
31724;SDS011;18306;40.960;14.836;2024-02-15T08:55:19;16.52;;;12.40;;
31724;SDS011;18306;40.960;14.836;2024-02-15T08:57:50;9.63;;;6.55;;
31724;SDS011;18306;40.960;14.836;2024-02-15T09:00:18;8.27;;;5.88;;
31724;SDS011;18306;40.960;14.836;2024-02-15T09:02:47;9.15;;;5.78;;
31724;SDS011;18306;40.960;14.836;2024-02-15T09:05:19;9.98;;;6.32;;
31724;SDS011;18306;40.960;14.836;2024-02-15T09:07:48;7.43;;;4.45;;
31724;SDS011;18306;40.960;14.836;2024-02-15T09:10:23;9.35;;;5.85;;
31724;SDS011;18306;40.960;14.836;2024-02-15T09:12:54;8.85;;;5.93;;
31724;SDS011;18306;40.960;14.836;2024-02-15T09:15:21;18.38;;;11.63;;
31724;SDS011;18306;40.960;14.836;2024-02-15T09:17:49;8.35;;;5.45;;
31724;SDS011;18306;40.960;14.836;2024-02-15T09:20:21;8.88;;;6.20;;
31724;SDS011;18306;40.960;14.836;2024-02-15T09:22:51;11.65;;;8.65;;
31724;SDS011;18306;40.960;14.836;2024-02-15T09:25:21;7.43;;;5.30;;
31724;SDS011;18306;40.960;14.836;2024-02-15T09:27:51;6.47;;;4.20;;
31724;SDS011;18306;40.960;14.836;2024-02-15T09:30:22;4.88;;;3.33;;
31724;SDS011;18306;40.960;14.836;2024-02-15T09:32:56;8.98;;;4.88;;
31724;SDS011;18306;40.960;14.836;2024-02-15T09:35:32;8.07;;;4.20;;
31724;SDS011;18306;40.960;14.836;2024-02-15T09:37:59;2.90;;;2.22;;
31724;SDS011;18306;40.960;14.836;2024-02-15T09:40:27;3.90;;;2.40;;
31724;SDS011;18306;40.960;14.836;2024-02-15T09:42:58;3.67;;;2.30;;
31724;SDS011;18306;40.960;14.836;2024-02-15T09:45:26;3.47;;;2.40;;
31724;SDS011;18306;40.960;14.836;2024-02-15T09:47:56;4.40;;;2.55;;
31724;SDS011;18306;40.960;14.836;2024-02-15T09:50:28;3.97;;;2.50;;
31724;SDS011;18306;40.960;14.836;2024-02-15T09:52:59;3.97;;;2.85;;
31724;SDS011;18306;40.960;14.836;2024-02-15T09:55:34;4.22;;;3.03;;
31724;SDS011;18306;40.960;14.836;2024-02-15T09:58:01;4.13;;;2.55;;
31724;SDS011;18306;40.960;14.836;2024-02-15T10:00:33;4.90;;;2.90;;
31724;SDS011;18306;40.960;14.836;2024-02-15T10:03:01;3.78;;;2.40;;
31724;SDS011;18306;40.960;14.836;2024-02-15T10:05:31;2.85;;;2.42;;
31724;SDS011;18306;40.960;14.836;2024-02-15T10:07:59;3.67;;;2.78;;
31724;SDS011;18306;40.960;14.836;2024-02-15T10:10:27;4.10;;;2.92;;
31724;SDS011;18306;40.960;14.836;2024-02-15T10:17:35;2.65;;;2.00;;
31724;SDS011;18306;40.960;14.836;2024-02-15T10:20:03;4.03;;;2.55;;
31724;SDS011;18306;40.960;14.836;2024-02-15T10:22:31;3.95;;;2.60;;
31724;SDS011;18306;40.960;14.836;2024-02-15T10:25:11;2.78;;;2.25;;
31724;SDS011;18306;40.960;14.836;2024-02-15T10:27:40;4.55;;;2.97;;
31724;SDS011;18306;40.960;14.836;2024-02-15T10:30:14;2.72;;;2.45;;
31724;SDS011;18306;40.960;14.836;2024-02-15T10:32:46;2.25;;;1.92;;
31724;SDS011;18306;40.960;14.836;2024-02-15T10:35:19;2.78;;;2.10;;
31724;SDS011;18306;40.960;14.836;2024-02-15T10:37:50;4.20;;;2.60;;
31724;SDS011;18306;40.960;14.836;2024-02-15T10:40:18;3.08;;;2.22;;
31724;SDS011;18306;40.960;14.836;2024-02-15T10:42:46;4.00;;;2.50;;
31724;SDS011;18306;40.960;14.836;2024-02-15T10:45:15;2.85;;;2.22;;
31724;SDS011;18306;40.960;14.836;2024-02-15T10:47:44;3.08;;;1.92;;
31724;SDS011;18306;40.960;14.836;2024-02-15T10:50:13;3.05;;;2.10;;
31724;SDS011;18306;40.960;14.836;2024-02-15T10:52:55;6.18;;;2.45;;
31724;SDS011;18306;40.960;14.836;2024-02-15T10:58:19;4.63;;;3.20;;
31724;SDS011;18306;40.960;14.836;2024-02-15T11:00:49;5.70;;;3.60;;
31724;SDS011;18306;40.960;14.836;2024-02-15T11:03:25;4.27;;;3.30;;
31724;SDS011;18306;40.960;14.836;2024-02-15T11:05:57;4.75;;;3.20;;
31724;SDS011;18306;40.960;14.836;2024-02-15T11:08:28;3.90;;;2.58;;
31724;SDS011;18306;40.960;14.836;2024-02-15T11:10:57;3.65;;;2.90;;
31724;SDS011;18306;40.960;14.836;2024-02-15T11:13:25;5.43;;;2.70;;
31724;SDS011;18306;40.960;14.836;2024-02-15T11:15:53;5.53;;;2.80;;
31724;SDS011;18306;40.960;14.836;2024-02-15T11:21:18;2.63;;;2.00;;
31724;SDS011;18306;40.960;14.836;2024-02-15T11:26:51;3.53;;;2.58;;
31724;SDS011;18306;40.960;14.836;2024-02-15T11:29:49;3.38;;;2.60;;
31724;SDS011;18306;40.960;14.836;2024-02-15T11:32:33;5.20;;;3.60;;
31724;SDS011;18306;40.960;14.836;2024-02-15T11:35:24;5.03;;;3.50;;
31724;SDS011;18306;40.960;14.836;2024-02-15T11:37:55;4.93;;;4.15;;
31724;SDS011;18306;40.960;14.836;2024-02-15T11:46:12;6.13;;;3.10;;
31724;SDS011;18306;40.960;14.836;2024-02-15T11:48:39;2.72;;;2.28;;
31724;SDS011;18306;40.960;14.836;2024-02-15T11:51:06;3.20;;;2.70;;
31724;SDS011;18306;40.960;14.836;2024-02-15T11:53:38;3.60;;;2.42;;
31724;SDS011;18306;40.960;14.836;2024-02-15T11:56:27;3.78;;;2.63;;
31724;SDS011;18306;40.960;14.836;2024-02-15T12:02:09;3.25;;;2.60;;
31724;SDS011;18306;40.960;14.836;2024-02-15T12:04:56;3.15;;;2.42;;
31724;SDS011;18306;40.960;14.836;2024-02-15T12:07:42;4.22;;;2.60;;
31724;SDS011;18306;40.960;14.836;2024-02-15T12:10:28;4.47;;;2.78;;
31724;SDS011;18306;40.960;14.836;2024-02-15T12:13:17;3.20;;;2.50;;
31724;SDS011;18306;40.960;14.836;2024-02-15T12:16:06;3.90;;;2.70;;
31724;SDS011;18306;40.960;14.836;2024-02-15T12:18:52;4.00;;;2.97;;
31724;SDS011;18306;40.960;14.836;2024-02-15T12:21:24;3.40;;;2.60;;
31724;SDS011;18306;40.960;14.836;2024-02-15T12:23:57;3.15;;;2.40;;
31724;SDS011;18306;40.960;14.836;2024-02-15T12:26:24;3.35;;;2.70;;
31724;SDS011;18306;40.960;14.836;2024-02-15T12:28:57;4.95;;;3.03;;
31724;SDS011;18306;40.960;14.836;2024-02-15T12:31:27;3.35;;;2.70;;
31724;SDS011;18306;40.960;14.836;2024-02-15T12:34:01;3.35;;;2.58;;
31724;SDS011;18306;40.960;14.836;2024-02-15T12:36:33;3.63;;;3.20;;
31724;SDS011;18306;40.960;14.836;2024-02-15T12:39:03;4.22;;;3.03;;
31724;SDS011;18306;40.960;14.836;2024-02-15T12:41:38;4.65;;;3.88;;
31724;SDS011;18306;40.960;14.836;2024-02-15T12:44:09;4.60;;;2.75;;
31724;SDS011;18306;40.960;14.836;2024-02-15T12:46:38;4.55;;;3.53;;
31724;SDS011;18306;40.960;14.836;2024-02-15T12:51:51;3.35;;;2.40;;
31724;SDS011;18306;40.960;14.836;2024-02-15T12:54:19;4.45;;;2.70;;
31724;SDS011;18306;40.960;14.836;2024-02-15T12:56:47;4.80;;;3.00;;
31724;SDS011;18306;40.960;14.836;2024-02-15T12:59:20;10.07;;;9.02;;
31724;SDS011;18306;40.960;14.836;2024-02-15T13:01:47;2.92;;;2.60;;
31724;SDS011;18306;40.960;14.836;2024-02-15T13:04:24;5.28;;;3.25;;
31724;SDS011;18306;40.960;14.836;2024-02-15T13:06:51;3.80;;;3.00;;
31724;SDS011;18306;40.960;14.836;2024-02-15T13:09:19;2.97;;;2.53;;
31724;SDS011;18306;40.960;14.836;2024-02-15T13:11:49;3.40;;;2.20;;
31724;SDS011;18306;40.960;14.836;2024-02-15T13:14:16;4.13;;;2.67;;
31724;SDS011;18306;40.960;14.836;2024-02-15T13:16:45;4.13;;;2.95;;
31724;SDS011;18306;40.960;14.836;2024-02-15T13:19:15;4.00;;;2.80;;
31724;SDS011;18306;40.960;14.836;2024-02-15T13:21:42;4.07;;;2.40;;
31724;SDS011;18306;40.960;14.836;2024-02-15T13:24:19;4.82;;;2.70;;
31724;SDS011;18306;40.960;14.836;2024-02-15T13:26:50;4.20;;;2.80;;
31724;SDS011;18306;40.960;14.836;2024-02-15T13:29:17;3.33;;;2.83;;
31724;SDS011;18306;40.960;14.836;2024-02-15T13:31:44;3.53;;;2.42;;
31724;SDS011;18306;40.960;14.836;2024-02-15T13:34:11;3.58;;;2.45;;
31724;SDS011;18306;40.960;14.836;2024-02-15T13:36:38;2.97;;;2.42;;
31724;SDS011;18306;40.960;14.836;2024-02-15T13:39:06;2.67;;;2.38;;
31724;SDS011;18306;40.960;14.836;2024-02-15T13:41:35;6.65;;;4.03;;
31724;SDS011;18306;40.960;14.836;2024-02-15T13:44:05;3.22;;;2.10;;
31724;SDS011;18306;40.960;14.836;2024-02-15T13:46:33;5.95;;;2.17;;
31724;SDS011;18306;40.960;14.836;2024-02-15T13:49:00;4.55;;;2.20;;
31724;SDS011;18306;40.960;14.836;2024-02-15T13:51:30;2.35;;;1.98;;
31724;SDS011;18306;40.960;14.836;2024-02-15T13:54:06;2.88;;;1.85;;
31724;SDS011;18306;40.960;14.836;2024-02-15T13:56:35;3.33;;;2.65;;
31724;SDS011;18306;40.960;14.836;2024-02-15T13:59:03;3.22;;;2.10;;
31724;SDS011;18306;40.960;14.836;2024-02-15T14:01:31;3.05;;;2.10;;
31724;SDS011;18306;40.960;14.836;2024-02-15T14:04:01;3.00;;;1.80;;
31724;SDS011;18306;40.960;14.836;2024-02-15T14:06:30;2.90;;;1.83;;
31724;SDS011;18306;40.960;14.836;2024-02-15T14:08:57;2.08;;;1.60;;
31724;SDS011;18306;40.960;14.836;2024-02-15T14:11:26;3.53;;;2.30;;
31724;SDS011;18306;40.960;14.836;2024-02-15T14:13:55;5.72;;;3.20;;
31724;SDS011;18306;40.960;14.836;2024-02-15T14:16:24;3.10;;;1.90;;
31724;SDS011;18306;40.960;14.836;2024-02-15T14:18:52;2.40;;;1.90;;
31724;SDS011;18306;40.960;14.836;2024-02-15T14:21:22;4.00;;;2.50;;
31724;SDS011;18306;40.960;14.836;2024-02-15T14:23:49;3.92;;;2.60;;
31724;SDS011;18306;40.960;14.836;2024-02-15T14:26:17;3.85;;;2.10;;
31724;SDS011;18306;40.960;14.836;2024-02-15T14:28:45;4.07;;;3.47;;
31724;SDS011;18306;40.960;14.836;2024-02-15T14:31:17;5.78;;;3.38;;
31724;SDS011;18306;40.960;14.836;2024-02-15T14:34:03;6.10;;;3.33;;
31724;SDS011;18306;40.960;14.836;2024-02-15T14:36:32;4.18;;;2.63;;
31724;SDS011;18306;40.960;14.836;2024-02-15T14:39:03;9.02;;;4.65;;
31724;SDS011;18306;40.960;14.836;2024-02-15T14:41:31;9.25;;;7.30;;
31724;SDS011;18306;40.960;14.836;2024-02-15T14:43:58;4.15;;;2.60;;
31724;SDS011;18306;40.960;14.836;2024-02-15T14:46:27;6.45;;;4.82;;
31724;SDS011;18306;40.960;14.836;2024-02-15T14:48:56;3.08;;;1.75;;
31724;SDS011;18306;40.960;14.836;2024-02-15T14:51:23;7.07;;;4.88;;
31724;SDS011;18306;40.960;14.836;2024-02-15T14:53:51;12.65;;;10.52;;
31724;SDS011;18306;40.960;14.836;2024-02-15T14:56:18;3.58;;;2.97;;
31724;SDS011;18306;40.960;14.836;2024-02-15T14:58:54;4.47;;;2.28;;
31724;SDS011;18306;40.960;14.836;2024-02-15T15:01:22;5.00;;;3.97;;
31724;SDS011;18306;40.960;14.836;2024-02-15T15:03:55;3.45;;;1.80;;
31724;SDS011;18306;40.960;14.836;2024-02-15T15:06:26;2.97;;;1.75;;
31724;SDS011;18306;40.960;14.836;2024-02-15T15:09:12;3.30;;;2.13;;